LVS137 SADF-MGI
Flight info
| Callsign | LVS137 |
|---|---|
| Flight time | N/A |
| Altitude | 1500 |
| Route | CV2 DCT MGI |
| Aircraft | ECHO/L-SFG/C |
Departure
| Time | 2026-04-19 18:25 |
|---|---|
| Airport | San Fernando Airport (SADF) |
Arrival
| Time | N/A |
|---|---|
| Airport | MGI |
| Time | Latitude | Longitude | Altitude | Speed | Heading |
|---|---|---|---|---|---|
| 2026-04-19 18:13 | -34.45848 | -58.59055 | 21 ft | 0 kts | 333° |
| 2026-04-19 18:19 | -34.45840 | -58.59061 | 21 ft | 8 kts | 328° |
| 2026-04-19 18:19 | -34.45811 | -58.59090 | 21 ft | 6 kts | 266° |
| 2026-04-19 18:19 | -34.45861 | -58.59206 | 21 ft | 25 kts | 243° |
| 2026-04-19 18:19 | -34.45937 | -58.59389 | 21 ft | 24 kts | 242° |
| 2026-04-19 18:20 | -34.46014 | -58.59563 | 21 ft | 21 kts | 243° |
| 2026-04-19 18:20 | -34.46026 | -58.59602 | 21 ft | 0 kts | 242° |
| 2026-04-19 18:22 | -34.46029 | -58.59640 | 21 ft | 9 kts | 291° |
| 2026-04-19 18:22 | -34.45975 | -58.59699 | 21 ft | 7 kts | 2° |
| 2026-04-19 18:22 | -34.45956 | -58.59677 | 21 ft | 0 kts | 42° |
| 2026-04-19 18:23 | -34.45952 | -58.59673 | 21 ft | 5 kts | 40° |
| 2026-04-19 18:23 | -34.45854 | -58.59557 | 21 ft | 44 kts | 44° |
| 2026-04-19 18:23 | -34.45541 | -58.59200 | 74 ft | 71 kts | 45° |
| 2026-04-19 18:24 | -34.45138 | -58.58790 | 172 ft | 85 kts | 41° |
| 2026-04-19 18:24 | -34.44644 | -58.58302 | 253 ft | 95 kts | 45° |
| 2026-04-19 18:24 | -34.44146 | -58.57750 | 372 ft | 99 kts | 45° |
| 2026-04-19 18:24 | -34.43631 | -58.57190 | 490 ft | 101 kts | 38° |
| 2026-04-19 18:25 | -34.42935 | -58.57132 | 592 ft | 107 kts | 339° |
| 2026-04-19 18:25 | -34.42281 | -58.57539 | 718 ft | 103 kts | 333° |
| 2026-04-19 18:25 | -34.41652 | -58.57912 | 836 ft | 99 kts | 333° |
| 2026-04-19 18:25 | -34.41059 | -58.58274 | 945 ft | 94 kts | 330° |
| 2026-04-19 18:26 | -34.40481 | -58.58635 | 988 ft | 95 kts | 331° |
| 2026-04-19 18:26 | -34.39880 | -58.58997 | 999 ft | 98 kts | 331° |
| 2026-04-19 18:26 | -34.39254 | -58.59377 | 1008 ft | 103 kts | 331° |
| 2026-04-19 18:26 | -34.38612 | -58.59773 | 1008 ft | 103 kts | 330° |
| 2026-04-19 18:27 | -34.37976 | -58.60152 | 1012 ft | 101 kts | 332° |
| 2026-04-19 18:27 | -34.37352 | -58.60512 | 995 ft | 95 kts | 332° |
| 2026-04-19 18:27 | -34.36761 | -58.60854 | 997 ft | 96 kts | 333° |
| 2026-04-19 18:27 | -34.36091 | -58.60853 | 986 ft | 99 kts | 16° |
| 2026-04-19 18:28 | -34.35582 | -58.60347 | 992 ft | 97 kts | 57° |
| 2026-04-19 18:28 | -34.35404 | -58.59552 | 991 ft | 100 kts | 91° |
| 2026-04-19 18:28 | -34.35269 | -58.58735 | 923 ft | 101 kts | 64° |
| 2026-04-19 18:28 | -34.34938 | -58.58009 | 967 ft | 93 kts | 57° |
| 2026-04-19 18:29 | -34.34599 | -58.57359 | 991 ft | 90 kts | 57° |
| 2026-04-19 18:29 | -34.34272 | -58.56692 | 991 ft | 94 kts | 58° |
| 2026-04-19 18:29 | -34.33925 | -58.56012 | 994 ft | 96 kts | 58° |
| 2026-04-19 18:29 | -34.33585 | -58.55326 | 1004 ft | 97 kts | 57° |
| 2026-04-19 18:30 | -34.33226 | -58.54616 | 1011 ft | 100 kts | 58° |
| 2026-04-19 18:30 | -34.32862 | -58.53874 | 1005 ft | 104 kts | 58° |
| 2026-04-19 18:30 | -34.32490 | -58.53132 | 1011 ft | 102 kts | 58° |
| 2026-04-19 18:30 | -34.32119 | -58.52387 | 1005 ft | 103 kts | 58° |
| 2026-04-19 18:31 | -34.31746 | -58.51645 | 1006 ft | 102 kts | 57° |
| 2026-04-19 18:31 | -34.31380 | -58.50918 | 1005 ft | 100 kts | 58° |
| 2026-04-19 18:31 | -34.31023 | -58.50205 | 995 ft | 98 kts | 57° |
| 2026-04-19 18:31 | -34.30671 | -58.49505 | 993 ft | 96 kts | 58° |
| 2026-04-19 18:32 | -34.30328 | -58.48817 | 992 ft | 95 kts | 57° |
| 2026-04-19 18:32 | -34.29987 | -58.48138 | 993 ft | 95 kts | 58° |
| 2026-04-19 18:32 | -34.29641 | -58.47444 | 994 ft | 97 kts | 58° |
| 2026-04-19 18:32 | -34.29292 | -58.46746 | 997 ft | 97 kts | 58° |
| 2026-04-19 18:33 | -34.28941 | -58.46046 | 995 ft | 97 kts | 57° |
| 2026-04-19 18:33 | -34.28588 | -58.45347 | 998 ft | 97 kts | 58° |
| 2026-04-19 18:33 | -34.28237 | -58.44645 | 999 ft | 98 kts | 57° |
| 2026-04-19 18:33 | -34.27885 | -58.43943 | 1001 ft | 98 kts | 57° |
| 2026-04-19 18:34 | -34.27534 | -58.43245 | 999 ft | 96 kts | 57° |
| 2026-04-19 18:34 | -34.27189 | -58.42555 | 998 ft | 96 kts | 57° |
| 2026-04-19 18:34 | -34.26844 | -58.41872 | 1002 ft | 95 kts | 57° |
| 2026-04-19 18:34 | -34.26499 | -58.41183 | 1005 ft | 97 kts | 57° |
| 2026-04-19 18:35 | -34.26142 | -58.40481 | 1010 ft | 98 kts | 57° |
| 2026-04-19 18:35 | -34.25791 | -58.39773 | 1014 ft | 98 kts | 58° |
| 2026-04-19 18:35 | -34.25438 | -58.39072 | 1014 ft | 97 kts | 57° |
| 2026-04-19 18:35 | -34.25095 | -58.38385 | 1012 ft | 97 kts | 58° |
| 2026-04-19 18:36 | -34.24744 | -58.37688 | 1013 ft | 97 kts | 58° |
| 2026-04-19 18:36 | -34.24392 | -58.36984 | 1016 ft | 99 kts | 57° |
| 2026-04-19 18:36 | -34.24033 | -58.36276 | 1023 ft | 98 kts | 58° |
| 2026-04-19 18:36 | -34.23679 | -58.35570 | 1021 ft | 98 kts | 57° |
| 2026-04-19 18:37 | -34.23327 | -58.34872 | 1021 ft | 97 kts | 58° |
| 2026-04-19 18:37 | -34.22974 | -58.34174 | 1027 ft | 98 kts | 57° |
| 2026-04-19 18:37 | -34.22620 | -58.33470 | 1024 ft | 99 kts | 58° |
| 2026-04-19 18:37 | -34.22262 | -58.32759 | 1026 ft | 100 kts | 58° |
| 2026-04-19 18:38 | -34.21903 | -58.32043 | 1026 ft | 99 kts | 57° |
| 2026-04-19 18:38 | -34.21547 | -58.31338 | 1021 ft | 97 kts | 58° |
| 2026-04-19 18:38 | -34.21197 | -58.30646 | 1020 ft | 96 kts | 58° |
| 2026-04-19 18:38 | -34.20850 | -58.29955 | 1019 ft | 96 kts | 57° |
| 2026-04-19 18:39 | -34.20502 | -58.29268 | 1015 ft | 95 kts | 58° |
| 2026-04-19 18:39 | -34.20162 | -58.28587 | 1020 ft | 95 kts | 57° |
| 2026-04-19 18:39 | -34.19818 | -58.27906 | 1016 ft | 93 kts | 57° |
| 2026-04-19 18:39 | -34.19479 | -58.27238 | 1017 ft | 93 kts | 57° |
| 2026-04-19 18:40 | -34.19156 | -58.26549 | 882 ft | 94 kts | 72° |
| 2026-04-19 18:40 | -34.19369 | -58.25934 | 761 ft | 79 kts | 147° |
| 2026-04-19 18:40 | -34.19866 | -58.25621 | 693 ft | 87 kts | 156° |
| 2026-04-19 18:40 | -34.20301 | -58.25123 | 613 ft | 94 kts | 92° |
| 2026-04-19 18:41 | -34.20215 | -58.24475 | 537 ft | 85 kts | 80° |
| 2026-04-19 18:41 | -34.20028 | -58.24057 | 402 ft | 88 kts | 20° |
| 2026-04-19 18:41 | -34.19447 | -58.24256 | 170 ft | 95 kts | 335° |
| 2026-04-19 18:42 | -34.18832 | -58.24482 | 44 ft | 87 kts | 342° |
| 2026-04-19 18:42 | -34.18336 | -58.24654 | 19 ft | 46 kts | 343° |
| 2026-04-19 18:42 | -34.18256 | -58.24740 | 18 ft | 17 kts | 262° |
| 2026-04-19 18:42 | -34.18294 | -58.24823 | 18 ft | 8 kts | 164° |
| 2026-04-19 18:43 | -34.18443 | -58.24776 | 18 ft | 22 kts | 184° |
| 2026-04-19 18:43 | -34.18492 | -58.24814 | 18 ft | 1 kts | 121° |
| 2026-04-19 18:43 | -34.18494 | -58.24808 | 18 ft | 0 kts | 81° |